Portada
METAR-TAF:

METAR-TAF

Aeroports :

Maun, Botswana

latitud: 19-59S, longitud: 023-25E, altitud: 945 m

Observació

L'informe es va fer fa 16 minuts, a les 18:00 UTC
Vent 2 kt amb direcció variable
Temperatura 31°C
Humitat 36%
Pressió 1011 hPa
Visibilitat 10 km o més
sense núvols per sota de 1500 mi sense presència de cumulonimbus.

METAR: FBMN 221800Z VRB02KT CAVOK 31/14 Q1011

Hora: 20:16 (18:16 UTC)

Pronòstic

L'informe es va fer fa 6 hores i 16 minuts, a les 12:00 UTC
Pronòstic vàlid del 22 a les 15 UTC al 22 a les 24 UTC
Vent 4 kt del Nord/Nord-Est
Visibilitat 10 km o més
Núvols disperses a una alçada de 3000 ft
Escasses núvols a una alçada de 3000 ft, Cumulonimbus.
Núvols disperses a una alçada de 7000 ft
Probabilitat 30% :
Temporalment
l' 22 a les 15 UTC al 22 a les 18 UTC
tempesta, pluja

TAF: FBMN 221200Z 2215/2224 02004KT 9999 SCT030 FEW030CB SCT070 PROB30 TEMPO 2215/2218 TSRA

Observacions i pronòstics meteorològics de més de 4000 aeroports (METAR i TAF).

Les estacions disponibles són els punts grocs i vermells al mapa.

Posi el ratolí al punt desitjat per veure el nom de l'estació.

Feu clic per veure les observacions i els pronòstics meteorològics.

Per canviar el mapa: feu clic els botons verds amb una creu de color negre per apropar; al botó verd amb un guió per allunyar la imatge; o en les fletxes verdes per a mapes adjacents.


METAR-TAF: